KLUK/LUK METAR and TAF weather

Enter ICAO airport designator
Station Type Date Time Source
KLUK METAR 2021/09/16 21:53 UTC NOAA

KLUK 162153Z 04008KT 10SM FEW044 28/19 A3006 RMK AO2 SLP175 T02780189


Station Type Date Time Source
KLUK Decoded METAR 2021/09/16 21:53 UTC NOAA

CINCINNATI MUN LUNKEN FLD, OH, United States (KLUK) 39-06N 84-25W 155M
Sep 16, 2021 - 05:53 PM EDT / 2021.09.16 2153 UTC
Wind: from the NE (040 degrees) at 9 MPH (8 KT):0
Visibility: 10 mile(s):0
Sky conditions: mostly clear
Temperature: 82.0 F (27.8 C)
Dew Point: 66.0 F (18.9 C)
Relative Humidity: 58%
Pressure (altimeter): 30.06 in. Hg (1017 hPa)
ob: KLUK 162153Z 04008KT 10SM FEW044 28/19 A3006 RMK AO2 SLP175 T02780189
cycle: 22

Station Type Date Time Source
KLUK TAF 2021/09/16 18:36 UTC NOAA

TAF KLUK 161733Z 1618/1718 05006KT P6SM OVC028
FM161900 06005KT P6SM SCT028
FM170000 00000KT P6SM FEW250
FM170800 00000KT 5SM BR FEW250
FM171000 00000KT 2SM BR FEW025
FM171100 00000KT 1SM BR SCT120
FM171300 00000KT 5SM BR SCT250
FM171400 19004KT P6SM SCT050

Example: see airport list